sensor_id;sensor_type;location;lat;lon;timestamp;P1;durP1;ratioP1;P2;durP2;ratioP2
57047;SDS011;42934;54.294;18.598;2022-11-21T00:00:44;19.65;;;11.18;;
57047;SDS011;42934;54.294;18.598;2022-11-21T00:03:15;20.48;;;11.32;;
57047;SDS011;42934;54.294;18.598;2022-11-21T00:05:44;20.38;;;11.00;;
57047;SDS011;42934;54.294;18.598;2022-11-21T00:08:15;22.40;;;12.13;;
57047;SDS011;42934;54.294;18.598;2022-11-21T00:10:47;22.13;;;12.38;;
57047;SDS011;42934;54.294;18.598;2022-11-21T00:13:17;21.55;;;11.38;;
57047;SDS011;42934;54.294;18.598;2022-11-21T00:18:16;23.02;;;11.82;;
57047;SDS011;42934;54.294;18.598;2022-11-21T00:20:45;26.90;;;13.90;;
57047;SDS011;42934;54.294;18.598;2022-11-21T00:23:15;27.07;;;13.67;;
57047;SDS011;42934;54.294;18.598;2022-11-21T00:25:44;26.08;;;13.48;;
57047;SDS011;42934;54.294;18.598;2022-11-21T00:28:15;27.67;;;13.73;;
57047;SDS011;42934;54.294;18.598;2022-11-21T00:30:44;28.58;;;13.63;;
57047;SDS011;42934;54.294;18.598;2022-11-21T00:33:14;25.98;;;14.15;;
57047;SDS011;42934;54.294;18.598;2022-11-21T00:35:43;27.90;;;15.15;;
57047;SDS011;42934;54.294;18.598;2022-11-21T00:38:12;29.37;;;14.90;;
57047;SDS011;42934;54.294;18.598;2022-11-21T00:40:41;30.67;;;15.32;;
57047;SDS011;42934;54.294;18.598;2022-11-21T00:43:12;33.40;;;15.48;;
57047;SDS011;42934;54.294;18.598;2022-11-21T00:45:42;32.65;;;16.20;;
57047;SDS011;42934;54.294;18.598;2022-11-21T00:48:11;30.73;;;15.55;;
57047;SDS011;42934;54.294;18.598;2022-11-21T00:50:40;36.65;;;17.25;;
57047;SDS011;42934;54.294;18.598;2022-11-21T00:53:10;32.73;;;16.30;;
57047;SDS011;42934;54.294;18.598;2022-11-21T00:55:39;33.22;;;16.42;;
57047;SDS011;42934;54.294;18.598;2022-11-21T00:58:09;30.55;;;14.77;;
57047;SDS011;42934;54.294;18.598;2022-11-21T01:00:40;30.60;;;15.00;;
57047;SDS011;42934;54.294;18.598;2022-11-21T01:03:09;35.63;;;16.77;;
57047;SDS011;42934;54.294;18.598;2022-11-21T01:05:39;34.03;;;15.93;;
57047;SDS011;42934;54.294;18.598;2022-11-21T01:08:08;35.00;;;17.20;;
57047;SDS011;42934;54.294;18.598;2022-11-21T01:10:37;33.97;;;15.68;;
57047;SDS011;42934;54.294;18.598;2022-11-21T01:13:07;30.67;;;14.03;;
57047;SDS011;42934;54.294;18.598;2022-11-21T01:15:36;29.92;;;13.98;;
57047;SDS011;42934;54.294;18.598;2022-11-21T01:18:07;34.83;;;15.83;;
57047;SDS011;42934;54.294;18.598;2022-11-21T01:20:37;25.42;;;12.57;;
57047;SDS011;42934;54.294;18.598;2022-11-21T01:23:07;26.88;;;13.18;;
57047;SDS011;42934;54.294;18.598;2022-11-21T01:25:36;28.00;;;14.25;;
57047;SDS011;42934;54.294;18.598;2022-11-21T01:28:05;28.03;;;13.47;;
57047;SDS011;42934;54.294;18.598;2022-11-21T01:30:34;31.48;;;13.98;;
57047;SDS011;42934;54.294;18.598;2022-11-21T01:33:04;27.43;;;13.03;;
57047;SDS011;42934;54.294;18.598;2022-11-21T01:35:34;28.70;;;14.05;;
57047;SDS011;42934;54.294;18.598;2022-11-21T01:38:04;30.50;;;13.57;;
57047;SDS011;42934;54.294;18.598;2022-11-21T01:40:36;24.23;;;11.88;;
57047;SDS011;42934;54.294;18.598;2022-11-21T01:43:08;26.55;;;12.55;;
57047;SDS011;42934;54.294;18.598;2022-11-21T01:45:50;24.88;;;12.15;;
57047;SDS011;42934;54.294;18.598;2022-11-21T01:48:24;23.15;;;12.05;;
57047;SDS011;42934;54.294;18.598;2022-11-21T01:50:57;26.40;;;11.93;;
57047;SDS011;42934;54.294;18.598;2022-11-21T01:53:32;27.40;;;12.23;;
57047;SDS011;42934;54.294;18.598;2022-11-21T01:58:33;26.10;;;11.80;;
57047;SDS011;42934;54.294;18.598;2022-11-21T02:01:04;24.77;;;12.00;;
57047;SDS011;42934;54.294;18.598;2022-11-21T02:03:39;27.02;;;12.43;;
57047;SDS011;42934;54.294;18.598;2022-11-21T02:06:10;24.38;;;12.65;;
57047;SDS011;42934;54.294;18.598;2022-11-21T02:08:40;28.20;;;14.15;;
57047;SDS011;42934;54.294;18.598;2022-11-21T02:11:15;28.67;;;12.98;;
57047;SDS011;42934;54.294;18.598;2022-11-21T02:13:54;28.25;;;14.32;;
57047;SDS011;42934;54.294;18.598;2022-11-21T02:16:24;26.90;;;14.10;;
57047;SDS011;42934;54.294;18.598;2022-11-21T02:18:56;34.30;;;14.98;;
57047;SDS011;42934;54.294;18.598;2022-11-21T02:21:28;30.67;;;14.93;;
57047;SDS011;42934;54.294;18.598;2022-11-21T02:24:06;31.52;;;15.52;;
57047;SDS011;42934;54.294;18.598;2022-11-21T02:26:45;33.08;;;14.88;;
57047;SDS011;42934;54.294;18.598;2022-11-21T02:29:16;34.53;;;15.02;;
57047;SDS011;42934;54.294;18.598;2022-11-21T02:31:45;32.22;;;15.05;;
57047;SDS011;42934;54.294;18.598;2022-11-21T03:34:01;29.95;;;13.20;;
57047;SDS011;42934;54.294;18.598;2022-11-21T03:36:30;29.45;;;14.10;;
57047;SDS011;42934;54.294;18.598;2022-11-21T03:39:00;29.77;;;12.57;;
57047;SDS011;42934;54.294;18.598;2022-11-21T03:41:29;28.88;;;13.88;;
57047;SDS011;42934;54.294;18.598;2022-11-21T03:43:59;30.83;;;13.57;;
57047;SDS011;42934;54.294;18.598;2022-11-21T03:46:30;28.13;;;13.65;;
57047;SDS011;42934;54.294;18.598;2022-11-21T03:49:02;32.97;;;14.13;;
57047;SDS011;42934;54.294;18.598;2022-11-21T03:51:32;28.77;;;13.18;;
57047;SDS011;42934;54.294;18.598;2022-11-21T03:54:02;26.92;;;13.20;;
57047;SDS011;42934;54.294;18.598;2022-11-21T03:56:32;31.25;;;14.00;;
57047;SDS011;42934;54.294;18.598;2022-11-21T03:59:02;35.95;;;14.40;;
57047;SDS011;42934;54.294;18.598;2022-11-21T04:01:31;30.40;;;14.40;;
57047;SDS011;42934;54.294;18.598;2022-11-21T04:04:04;31.35;;;14.18;;
57047;SDS011;42934;54.294;18.598;2022-11-21T04:06:33;30.45;;;13.93;;
57047;SDS011;42934;54.294;18.598;2022-11-21T04:09:03;31.20;;;14.50;;
57047;SDS011;42934;54.294;18.598;2022-11-21T04:11:32;30.10;;;13.77;;
57047;SDS011;42934;54.294;18.598;2022-11-21T04:14:01;32.57;;;15.27;;
57047;SDS011;42934;54.294;18.598;2022-11-21T04:16:31;30.90;;;14.05;;
57047;SDS011;42934;54.294;18.598;2022-11-21T04:19:01;29.40;;;14.03;;
57047;SDS011;42934;54.294;18.598;2022-11-21T04:21:31;29.25;;;12.95;;
57047;SDS011;42934;54.294;18.598;2022-11-21T04:24:01;30.58;;;13.73;;
57047;SDS011;42934;54.294;18.598;2022-11-21T04:26:30;28.23;;;12.80;;
57047;SDS011;42934;54.294;18.598;2022-11-21T04:29:00;26.50;;;13.07;;
57047;SDS011;42934;54.294;18.598;2022-11-21T04:31:29;31.77;;;13.75;;
57047;SDS011;42934;54.294;18.598;2022-11-21T04:33:58;31.23;;;14.33;;
57047;SDS011;42934;54.294;18.598;2022-11-21T04:36:28;33.07;;;14.90;;
57047;SDS011;42934;54.294;18.598;2022-11-21T04:38:59;33.42;;;15.18;;
57047;SDS011;42934;54.294;18.598;2022-11-21T04:41:28;31.50;;;15.05;;
57047;SDS011;42934;54.294;18.598;2022-11-21T04:43:57;29.92;;;13.80;;
57047;SDS011;42934;54.294;18.598;2022-11-21T04:46:26;30.75;;;14.10;;
57047;SDS011;42934;54.294;18.598;2022-11-21T04:48:56;29.87;;;14.50;;
57047;SDS011;42934;54.294;18.598;2022-11-21T04:51:25;34.30;;;15.30;;
57047;SDS011;42934;54.294;18.598;2022-11-21T04:53:54;29.53;;;14.77;;
57047;SDS011;42934;54.294;18.598;2022-11-21T04:56:25;28.65;;;13.90;;
57047;SDS011;42934;54.294;18.598;2022-11-21T04:58:54;33.60;;;15.07;;
57047;SDS011;42934;54.294;18.598;2022-11-21T05:01:23;28.73;;;14.00;;
57047;SDS011;42934;54.294;18.598;2022-11-21T05:03:53;24.30;;;11.63;;
57047;SDS011;42934;54.294;18.598;2022-11-21T05:06:22;30.08;;;14.23;;
57047;SDS011;42934;54.294;18.598;2022-11-21T05:08:52;30.47;;;14.27;;
57047;SDS011;42934;54.294;18.598;2022-11-21T05:11:21;31.63;;;14.57;;
57047;SDS011;42934;54.294;18.598;2022-11-21T05:14:09;30.60;;;14.50;;
57047;SDS011;42934;54.294;18.598;2022-11-21T05:16:38;31.23;;;15.57;;
57047;SDS011;42934;54.294;18.598;2022-11-21T05:19:07;30.60;;;15.00;;
57047;SDS011;42934;54.294;18.598;2022-11-21T05:21:37;31.08;;;14.32;;
57047;SDS011;42934;54.294;18.598;2022-11-21T05:24:06;29.53;;;13.70;;
57047;SDS011;42934;54.294;18.598;2022-11-21T05:26:35;32.30;;;15.63;;
57047;SDS011;42934;54.294;18.598;2022-11-21T05:29:05;28.27;;;13.57;;
57047;SDS011;42934;54.294;18.598;2022-11-21T05:31:35;30.10;;;14.43;;
57047;SDS011;42934;54.294;18.598;2022-11-21T05:34:05;32.47;;;15.38;;
57047;SDS011;42934;54.294;18.598;2022-11-21T05:36:34;32.25;;;14.18;;
57047;SDS011;42934;54.294;18.598;2022-11-21T05:39:03;34.60;;;15.43;;
57047;SDS011;42934;54.294;18.598;2022-11-21T05:41:33;25.20;;;12.25;;
57047;SDS011;42934;54.294;18.598;2022-11-21T05:44:02;26.13;;;12.60;;
57047;SDS011;42934;54.294;18.598;2022-11-21T05:46:30;26.50;;;13.50;;
57047;SDS011;42934;54.294;18.598;2022-11-21T05:49:01;24.50;;;13.00;;
57047;SDS011;42934;54.294;18.598;2022-11-21T05:51:30;24.83;;;12.80;;
57047;SDS011;42934;54.294;18.598;2022-11-21T05:54:00;28.80;;;14.02;;
57047;SDS011;42934;54.294;18.598;2022-11-21T05:56:29;30.73;;;15.33;;
57047;SDS011;42934;54.294;18.598;2022-11-21T05:58:59;29.88;;;15.15;;
57047;SDS011;42934;54.294;18.598;2022-11-21T06:01:28;36.03;;;17.27;;
57047;SDS011;42934;54.294;18.598;2022-11-21T06:04:13;32.17;;;16.55;;
57047;SDS011;42934;54.294;18.598;2022-11-21T06:06:42;28.77;;;14.50;;
57047;SDS011;42934;54.294;18.598;2022-11-21T06:09:11;32.90;;;16.70;;
57047;SDS011;42934;54.294;18.598;2022-11-21T06:11:40;32.58;;;14.90;;
57047;SDS011;42934;54.294;18.598;2022-11-21T06:14:10;34.47;;;15.77;;
57047;SDS011;42934;54.294;18.598;2022-11-21T06:16:39;35.72;;;17.13;;
57047;SDS011;42934;54.294;18.598;2022-11-21T06:19:08;31.23;;;14.57;;
57047;SDS011;42934;54.294;18.598;2022-11-21T06:21:39;33.08;;;16.17;;
57047;SDS011;42934;54.294;18.598;2022-11-21T06:24:08;32.47;;;15.60;;
57047;SDS011;42934;54.294;18.598;2022-11-21T06:26:41;33.50;;;16.23;;
57047;SDS011;42934;54.294;18.598;2022-11-21T06:29:11;35.33;;;16.38;;
57047;SDS011;42934;54.294;18.598;2022-11-21T06:31:40;33.53;;;16.48;;
57047;SDS011;42934;54.294;18.598;2022-11-21T06:34:09;28.77;;;14.73;;
57047;SDS011;42934;54.294;18.598;2022-11-21T06:36:40;30.85;;;15.63;;
57047;SDS011;42934;54.294;18.598;2022-11-21T06:39:10;33.13;;;15.57;;
57047;SDS011;42934;54.294;18.598;2022-11-21T06:41:39;29.88;;;15.80;;
57047;SDS011;42934;54.294;18.598;2022-11-21T06:44:09;33.83;;;15.43;;
57047;SDS011;42934;54.294;18.598;2022-11-21T06:46:38;29.25;;;14.85;;
57047;SDS011;42934;54.294;18.598;2022-11-21T06:49:07;35.13;;;16.47;;
57047;SDS011;42934;54.294;18.598;2022-11-21T06:51:36;32.72;;;15.70;;
57047;SDS011;42934;54.294;18.598;2022-11-21T06:54:07;32.50;;;16.67;;
57047;SDS011;42934;54.294;18.598;2022-11-21T06:56:42;31.75;;;15.63;;
57047;SDS011;42934;54.294;18.598;2022-11-21T06:59:13;32.92;;;16.55;;
57047;SDS011;42934;54.294;18.598;2022-11-21T07:01:51;33.25;;;16.05;;
57047;SDS011;42934;54.294;18.598;2022-11-21T07:04:21;34.85;;;17.45;;
57047;SDS011;42934;54.294;18.598;2022-11-21T07:06:51;32.38;;;16.02;;
57047;SDS011;42934;54.294;18.598;2022-11-21T07:09:22;39.47;;;17.03;;
57047;SDS011;42934;54.294;18.598;2022-11-21T07:11:59;30.60;;;14.75;;
57047;SDS011;42934;54.294;18.598;2022-11-21T07:14:43;34.25;;;16.35;;
57047;SDS011;42934;54.294;18.598;2022-11-21T07:17:12;36.58;;;17.60;;
57047;SDS011;42934;54.294;18.598;2022-11-21T07:19:41;41.70;;;17.85;;
57047;SDS011;42934;54.294;18.598;2022-11-21T07:22:11;33.20;;;16.20;;
57047;SDS011;42934;54.294;18.598;2022-11-21T07:24:41;32.80;;;16.37;;
57047;SDS011;42934;54.294;18.598;2022-11-21T07:27:10;31.38;;;14.93;;
57047;SDS011;42934;54.294;18.598;2022-11-21T07:29:40;35.43;;;16.90;;
57047;SDS011;42934;54.294;18.598;2022-11-21T07:32:09;32.13;;;16.38;;
57047;SDS011;42934;54.294;18.598;2022-11-21T07:34:39;30.30;;;15.60;;
57047;SDS011;42934;54.294;18.598;2022-11-21T07:37:08;37.42;;;16.83;;
57047;SDS011;42934;54.294;18.598;2022-11-21T07:39:38;33.30;;;16.23;;
57047;SDS011;42934;54.294;18.598;2022-11-21T07:42:08;34.88;;;17.67;;
57047;SDS011;42934;54.294;18.598;2022-11-21T07:44:38;32.97;;;16.05;;
57047;SDS011;42934;54.294;18.598;2022-11-21T07:47:07;30.83;;;15.13;;
57047;SDS011;42934;54.294;18.598;2022-11-21T07:49:41;33.22;;;14.88;;
57047;SDS011;42934;54.294;18.598;2022-11-21T07:52:10;28.85;;;14.80;;
57047;SDS011;42934;54.294;18.598;2022-11-21T07:54:39;31.23;;;15.73;;
57047;SDS011;42934;54.294;18.598;2022-11-21T07:57:10;37.25;;;17.38;;
57047;SDS011;42934;54.294;18.598;2022-11-21T07:59:39;35.60;;;17.30;;
57047;SDS011;42934;54.294;18.598;2022-11-21T08:02:12;36.05;;;16.50;;
57047;SDS011;42934;54.294;18.598;2022-11-21T08:04:46;33.72;;;16.52;;
57047;SDS011;42934;54.294;18.598;2022-11-21T08:07:16;37.67;;;17.30;;
57047;SDS011;42934;54.294;18.598;2022-11-21T08:09:47;37.15;;;17.50;;
57047;SDS011;42934;54.294;18.598;2022-11-21T08:12:18;33.58;;;15.25;;
57047;SDS011;42934;54.294;18.598;2022-11-21T08:14:47;37.78;;;17.45;;
57047;SDS011;42934;54.294;18.598;2022-11-21T08:17:16;30.63;;;14.68;;
57047;SDS011;42934;54.294;18.598;2022-11-21T08:19:46;34.10;;;15.97;;
57047;SDS011;42934;54.294;18.598;2022-11-21T08:22:15;35.60;;;17.08;;
57047;SDS011;42934;54.294;18.598;2022-11-21T08:24:44;36.47;;;16.67;;
57047;SDS011;42934;54.294;18.598;2022-11-21T08:27:13;33.42;;;15.77;;
57047;SDS011;42934;54.294;18.598;2022-11-21T08:29:48;46.25;;;19.20;;
57047;SDS011;42934;54.294;18.598;2022-11-21T08:32:17;38.63;;;19.48;;
57047;SDS011;42934;54.294;18.598;2022-11-21T08:34:46;42.60;;;19.10;;
57047;SDS011;42934;54.294;18.598;2022-11-21T08:37:16;41.30;;;19.92;;
57047;SDS011;42934;54.294;18.598;2022-11-21T08:39:45;42.22;;;20.25;;
57047;SDS011;42934;54.294;18.598;2022-11-21T08:42:15;42.45;;;20.10;;
57047;SDS011;42934;54.294;18.598;2022-11-21T08:44:44;40.63;;;18.87;;
57047;SDS011;42934;54.294;18.598;2022-11-21T08:47:15;44.00;;;20.23;;
57047;SDS011;42934;54.294;18.598;2022-11-21T08:49:46;43.80;;;19.75;;
57047;SDS011;42934;54.294;18.598;2022-11-21T08:52:15;41.88;;;19.92;;
57047;SDS011;42934;54.294;18.598;2022-11-21T08:54:45;45.67;;;20.40;;
57047;SDS011;42934;54.294;18.598;2022-11-21T08:57:14;43.47;;;20.75;;
57047;SDS011;42934;54.294;18.598;2022-11-21T08:59:43;48.87;;;22.60;;
57047;SDS011;42934;54.294;18.598;2022-11-21T09:02:13;49.70;;;24.23;;
57047;SDS011;42934;54.294;18.598;2022-11-21T09:04:44;59.22;;;26.60;;
57047;SDS011;42934;54.294;18.598;2022-11-21T09:07:14;61.92;;;28.23;;
57047;SDS011;42934;54.294;18.598;2022-11-21T09:09:43;64.82;;;29.58;;
57047;SDS011;42934;54.294;18.598;2022-11-21T09:12:12;62.00;;;27.98;;
57047;SDS011;42934;54.294;18.598;2022-11-21T09:14:42;58.45;;;28.17;;
57047;SDS011;42934;54.294;18.598;2022-11-21T09:17:29;60.60;;;27.25;;
57047;SDS011;42934;54.294;18.598;2022-11-21T09:20:17;58.50;;;28.65;;
57047;SDS011;42934;54.294;18.598;2022-11-21T09:22:46;62.78;;;28.33;;
57047;SDS011;42934;54.294;18.598;2022-11-21T09:25:16;66.60;;;31.30;;
57047;SDS011;42934;54.294;18.598;2022-11-21T09:27:45;66.05;;;30.35;;
57047;SDS011;42934;54.294;18.598;2022-11-21T09:30:14;63.88;;;30.50;;
57047;SDS011;42934;54.294;18.598;2022-11-21T09:32:43;64.25;;;31.00;;
57047;SDS011;42934;54.294;18.598;2022-11-21T09:35:13;69.83;;;33.37;;
57047;SDS011;42934;54.294;18.598;2022-11-21T09:37:44;74.68;;;34.40;;
57047;SDS011;42934;54.294;18.598;2022-11-21T09:40:14;70.13;;;33.83;;
57047;SDS011;42934;54.294;18.598;2022-11-21T09:42:56;76.35;;;34.53;;
57047;SDS011;42934;54.294;18.598;2022-11-21T09:45:44;72.00;;;34.30;;
57047;SDS011;42934;54.294;18.598;2022-11-21T09:48:16;78.57;;;36.28;;
57047;SDS011;42934;54.294;18.598;2022-11-21T09:50:49;82.88;;;35.65;;
57047;SDS011;42934;54.294;18.598;2022-11-21T09:53:23;77.25;;;35.13;;
57047;SDS011;42934;54.294;18.598;2022-11-21T09:55:58;78.75;;;36.70;;
57047;SDS011;42934;54.294;18.598;2022-11-21T09:58:34;77.97;;;38.05;;
57047;SDS011;42934;54.294;18.598;2022-11-21T10:01:09;78.10;;;36.05;;
57047;SDS011;42934;54.294;18.598;2022-11-21T10:03:40;80.00;;;36.20;;
57047;SDS011;42934;54.294;18.598;2022-11-21T10:06:16;77.05;;;36.28;;
57047;SDS011;42934;54.294;18.598;2022-11-21T10:08:51;71.53;;;34.03;;
57047;SDS011;42934;54.294;18.598;2022-11-21T10:11:30;69.93;;;32.25;;
57047;SDS011;42934;54.294;18.598;2022-11-21T10:14:32;80.70;;;33.38;;
57047;SDS011;42934;54.294;18.598;2022-11-21T10:17:17;69.97;;;31.98;;
57047;SDS011;42934;54.294;18.598;2022-11-21T10:20:00;72.00;;;33.43;;
57047;SDS011;42934;54.294;18.598;2022-11-21T10:22:54;71.68;;;32.50;;
57047;SDS011;42934;54.294;18.598;2022-11-21T10:25:38;64.80;;;31.25;;
57047;SDS011;42934;54.294;18.598;2022-11-21T10:28:15;55.13;;;28.13;;
57047;SDS011;42934;54.294;18.598;2022-11-21T10:30:47;78.80;;;35.70;;
57047;SDS011;42934;54.294;18.598;2022-11-21T10:33:21;76.57;;;35.50;;
57047;SDS011;42934;54.294;18.598;2022-11-21T10:35:54;78.43;;;35.72;;
57047;SDS011;42934;54.294;18.598;2022-11-21T10:54:14;88.70;;;44.97;;
57047;SDS011;42934;54.294;18.598;2022-11-21T10:57:05;85.65;;;42.40;;
57047;SDS011;42934;54.294;18.598;2022-11-21T10:59:39;82.95;;;40.42;;
57047;SDS011;42934;54.294;18.598;2022-11-21T11:02:23;82.10;;;39.40;;
57047;SDS011;42934;54.294;18.598;2022-11-21T11:07:57;86.40;;;39.72;;
57047;SDS011;42934;54.294;18.598;2022-11-21T11:10:30;86.00;;;39.85;;
57047;SDS011;42934;54.294;18.598;2022-11-21T11:13:01;78.40;;;39.17;;
57047;SDS011;42934;54.294;18.598;2022-11-21T11:16:15;84.15;;;39.67;;
57047;SDS011;42934;54.294;18.598;2022-11-21T11:18:49;82.82;;;39.40;;
57047;SDS011;42934;54.294;18.598;2022-11-21T11:21:24;78.60;;;38.95;;
57047;SDS011;42934;54.294;18.598;2022-11-21T11:24:06;80.60;;;38.80;;
57047;SDS011;42934;54.294;18.598;2022-11-21T11:26:52;81.75;;;40.08;;
57047;SDS011;42934;54.294;18.598;2022-11-21T11:29:25;80.97;;;39.90;;
57047;SDS011;42934;54.294;18.598;2022-11-21T11:31:58;78.07;;;39.13;;
57047;SDS011;42934;54.294;18.598;2022-11-21T11:34:35;82.93;;;40.70;;
57047;SDS011;42934;54.294;18.598;2022-11-21T11:37:10;79.55;;;40.25;;
57047;SDS011;42934;54.294;18.598;2022-11-21T11:39:44;82.32;;;41.30;;
57047;SDS011;42934;54.294;18.598;2022-11-21T11:42:34;84.70;;;41.78;;
57047;SDS011;42934;54.294;18.598;2022-11-21T11:45:53;75.30;;;39.47;;
57047;SDS011;42934;54.294;18.598;2022-11-21T11:48:50;88.28;;;40.78;;
57047;SDS011;42934;54.294;18.598;2022-11-21T11:51:46;79.25;;;39.55;;
57047;SDS011;42934;54.294;18.598;2022-11-21T11:54:20;83.82;;;40.38;;
57047;SDS011;42934;54.294;18.598;2022-11-21T11:56:54;79.30;;;40.28;;
57047;SDS011;42934;54.294;18.598;2022-11-21T12:01:58;81.97;;;38.90;;
57047;SDS011;42934;54.294;18.598;2022-11-21T12:07:14;82.60;;;39.83;;
57047;SDS011;42934;54.294;18.598;2022-11-21T12:10:10;82.57;;;39.80;;
57047;SDS011;42934;54.294;18.598;2022-11-21T12:12:46;89.78;;;42.65;;
57047;SDS011;42934;54.294;18.598;2022-11-21T12:15:21;89.85;;;42.13;;
57047;SDS011;42934;54.294;18.598;2022-11-21T12:18:12;85.40;;;40.33;;
57047;SDS011;42934;54.294;18.598;2022-11-21T12:20:52;87.23;;;41.30;;
57047;SDS011;42934;54.294;18.598;2022-11-21T12:23:27;84.43;;;39.65;;
57047;SDS011;42934;54.294;18.598;2022-11-21T12:26:04;91.00;;;42.55;;
57047;SDS011;42934;54.294;18.598;2022-11-21T12:28:58;86.35;;;41.70;;
57047;SDS011;42934;54.294;18.598;2022-11-21T12:31:39;85.07;;;40.75;;
57047;SDS011;42934;54.294;18.598;2022-11-21T12:34:32;88.57;;;41.60;;
57047;SDS011;42934;54.294;18.598;2022-11-21T12:37:17;98.55;;;43.15;;
57047;SDS011;42934;54.294;18.598;2022-11-21T12:39:55;92.65;;;41.88;;
57047;SDS011;42934;54.294;18.598;2022-11-21T12:42:29;101.15;;;44.70;;
57047;SDS011;42934;54.294;18.598;2022-11-21T12:45:24;93.78;;;41.88;;
57047;SDS011;42934;54.294;18.598;2022-11-21T12:48:03;94.43;;;42.38;;
57047;SDS011;42934;54.294;18.598;2022-11-21T12:51:18;95.88;;;41.88;;
57047;SDS011;42934;54.294;18.598;2022-11-21T12:57:54;95.55;;;43.65;;
57047;SDS011;42934;54.294;18.598;2022-11-21T13:00:35;99.43;;;41.53;;
57047;SDS011;42934;54.294;18.598;2022-11-21T13:03:31;91.35;;;42.95;;
57047;SDS011;42934;54.294;18.598;2022-11-21T13:08:50;86.10;;;39.83;;
57047;SDS011;42934;54.294;18.598;2022-11-21T13:11:26;87.18;;;41.55;;
57047;SDS011;42934;54.294;18.598;2022-11-21T13:14:26;92.03;;;41.45;;
57047;SDS011;42934;54.294;18.598;2022-11-21T13:17:13;88.30;;;40.85;;
57047;SDS011;42934;54.294;18.598;2022-11-21T13:19:55;89.88;;;41.33;;
57047;SDS011;42934;54.294;18.598;2022-11-21T13:25:39;91.32;;;40.05;;
57047;SDS011;42934;54.294;18.598;2022-11-21T13:28:29;99.10;;;43.20;;
57047;SDS011;42934;54.294;18.598;2022-11-21T13:31:01;97.13;;;42.83;;
57047;SDS011;42934;54.294;18.598;2022-11-21T13:33:51;91.95;;;40.40;;
57047;SDS011;42934;54.294;18.598;2022-11-21T13:36:36;87.22;;;41.17;;
57047;SDS011;42934;54.294;18.598;2022-11-21T13:42:09;95.68;;;42.53;;
57047;SDS011;42934;54.294;18.598;2022-11-21T13:44:58;102.22;;;42.88;;
57047;SDS011;42934;54.294;18.598;2022-11-21T13:50:59;98.05;;;40.40;;
57047;SDS011;42934;54.294;18.598;2022-11-21T13:53:44;95.85;;;41.50;;
57047;SDS011;42934;54.294;18.598;2022-11-21T13:56:35;92.40;;;40.05;;
57047;SDS011;42934;54.294;18.598;2022-11-21T13:59:17;92.65;;;41.63;;
57047;SDS011;42934;54.294;18.598;2022-11-21T14:02:06;93.57;;;42.47;;
57047;SDS011;42934;54.294;18.598;2022-11-21T14:04:57;102.90;;;44.25;;
57047;SDS011;42934;54.294;18.598;2022-11-21T14:08:12;96.20;;;41.70;;
57047;SDS011;42934;54.294;18.598;2022-11-21T14:10:46;91.03;;;39.45;;
57047;SDS011;42934;54.294;18.598;2022-11-21T14:13:19;102.53;;;42.67;;
57047;SDS011;42934;54.294;18.598;2022-11-21T14:16:05;98.22;;;43.47;;
57047;SDS011;42934;54.294;18.598;2022-11-21T14:18:47;96.40;;;42.00;;
57047;SDS011;42934;54.294;18.598;2022-11-21T14:21:18;103.63;;;43.72;;
57047;SDS011;42934;54.294;18.598;2022-11-21T14:23:52;99.75;;;42.63;;
57047;SDS011;42934;54.294;18.598;2022-11-21T14:26:25;102.60;;;43.15;;
57047;SDS011;42934;54.294;18.598;2022-11-21T14:31:48;93.35;;;38.75;;
57047;SDS011;42934;54.294;18.598;2022-11-21T14:34:24;104.00;;;43.53;;
57047;SDS011;42934;54.294;18.598;2022-11-21T14:36:57;105.90;;;44.17;;
57047;SDS011;42934;54.294;18.598;2022-11-21T14:39:30;97.95;;;44.10;;
57047;SDS011;42934;54.294;18.598;2022-11-21T14:42:10;94.60;;;42.08;;
57047;SDS011;42934;54.294;18.598;2022-11-21T14:44:41;102.93;;;43.20;;
57047;SDS011;42934;54.294;18.598;2022-11-21T14:47:12;101.82;;;43.38;;
57047;SDS011;42934;54.294;18.598;2022-11-21T14:49:52;100.03;;;43.58;;
57047;SDS011;42934;54.294;18.598;2022-11-21T14:52:28;101.88;;;43.97;;
57047;SDS011;42934;54.294;18.598;2022-11-21T14:55:00;101.03;;;44.50;;
57047;SDS011;42934;54.294;18.598;2022-11-21T14:57:54;93.05;;;43.13;;
57047;SDS011;42934;54.294;18.598;2022-11-21T15:00:25;97.65;;;42.58;;
57047;SDS011;42934;54.294;18.598;2022-11-21T15:03:18;98.05;;;43.22;;
57047;SDS011;42934;54.294;18.598;2022-11-21T15:05:50;97.35;;;43.63;;
57047;SDS011;42934;54.294;18.598;2022-11-21T15:08:31;105.13;;;45.05;;
57047;SDS011;42934;54.294;18.598;2022-11-21T15:11:22;98.30;;;44.08;;
57047;SDS011;42934;54.294;18.598;2022-11-21T15:13:57;100.00;;;44.30;;
57047;SDS011;42934;54.294;18.598;2022-11-21T15:16:42;98.70;;;41.40;;
57047;SDS011;42934;54.294;18.598;2022-11-21T15:19:17;88.65;;;39.83;;
57047;SDS011;42934;54.294;18.598;2022-11-21T15:21:47;91.10;;;40.35;;
57047;SDS011;42934;54.294;18.598;2022-11-21T15:24:26;93.70;;;40.25;;
57047;SDS011;42934;54.294;18.598;2022-11-21T15:26:57;90.57;;;40.30;;
57047;SDS011;42934;54.294;18.598;2022-11-21T15:29:30;90.70;;;40.03;;
57047;SDS011;42934;54.294;18.598;2022-11-21T15:32:06;94.53;;;40.67;;
57047;SDS011;42934;54.294;18.598;2022-11-21T15:34:42;90.22;;;39.83;;
57047;SDS011;42934;54.294;18.598;2022-11-21T15:37:14;88.55;;;40.35;;
57047;SDS011;42934;54.294;18.598;2022-11-21T15:39:45;88.90;;;40.97;;
57047;SDS011;42934;54.294;18.598;2022-11-21T15:42:26;87.78;;;38.88;;
57047;SDS011;42934;54.294;18.598;2022-11-21T15:45:17;88.78;;;39.00;;
57047;SDS011;42934;54.294;18.598;2022-11-21T15:47:51;83.93;;;38.30;;
57047;SDS011;42934;54.294;18.598;2022-11-21T15:50:22;93.35;;;41.05;;
57047;SDS011;42934;54.294;18.598;2022-11-21T15:52:52;109.05;;;46.15;;
57047;SDS011;42934;54.294;18.598;2022-11-21T15:55:24;92.82;;;41.20;;
57047;SDS011;42934;54.294;18.598;2022-11-21T15:57:55;84.93;;;38.10;;
57047;SDS011;42934;54.294;18.598;2022-11-21T16:00:26;94.28;;;41.88;;
57047;SDS011;42934;54.294;18.598;2022-11-21T16:02:55;89.78;;;40.00;;
57047;SDS011;42934;54.294;18.598;2022-11-21T16:05:25;95.00;;;41.80;;
57047;SDS011;42934;54.294;18.598;2022-11-21T16:07:54;90.43;;;40.85;;
57047;SDS011;42934;54.294;18.598;2022-11-21T16:10:23;91.82;;;41.50;;
57047;SDS011;42934;54.294;18.598;2022-11-21T16:12:54;86.88;;;40.20;;
57047;SDS011;42934;54.294;18.598;2022-11-21T16:15:23;86.70;;;39.55;;
57047;SDS011;42934;54.294;18.598;2022-11-21T16:17:54;94.57;;;41.53;;
57047;SDS011;42934;54.294;18.598;2022-11-21T16:20:24;95.43;;;40.72;;
57047;SDS011;42934;54.294;18.598;2022-11-21T16:25:23;94.18;;;40.15;;
57047;SDS011;42934;54.294;18.598;2022-11-21T16:27:52;96.90;;;42.75;;
57047;SDS011;42934;54.294;18.598;2022-11-21T16:30:23;92.20;;;41.03;;
57047;SDS011;42934;54.294;18.598;2022-11-21T16:32:54;99.55;;;44.40;;
57047;SDS011;42934;54.294;18.598;2022-11-21T16:35:24;112.13;;;46.90;;
57047;SDS011;42934;54.294;18.598;2022-11-21T16:37:53;107.15;;;44.97;;